Princeton's Hourly Summary for Friday, July 6, 2018
Hour Temp
(f)
RH
(%)
Solar Rad.
(MJ/m2)
Rainfall
(in)
Wind
(mph)
7/6/2018 12:00 AM 81 70 0 0 0.52
7/6/2018 1:00 AM 80 73 0 0 0.13
7/6/2018 2:00 AM 79 75 0 0 0.24
7/6/2018 3:00 AM 77 79 0 0 0.3
7/6/2018 4:00 AM 76 82 0 0 0.92
7/6/2018 5:00 AM 76 85 0 0 0.48
7/6/2018 6:00 AM 75 87 0 0 1.58
7/6/2018 7:00 AM 75 95 0.05 0 2.33
7/6/2018 8:00 AM 76 79 0.28 0 2.12
7/6/2018 9:00 AM 81 67 1.2 0 2.28
7/6/2018 10:00 AM 86 56 1.89 0 2.03
7/6/2018 11:00 AM 88 54 1.98 0 2.48
7/6/2018 12:00 PM 90 46 2.57 0 2.46
7/6/2018 1:00 PM 93 38 3.18 0 3.3
7/6/2018 2:00 PM 94 35 2.93 0 3.51
7/6/2018 3:00 PM 91 35 1.52 0.04 5.17
7/6/2018 4:00 PM 75 99 0.2 0.1 2.04
7/6/2018 5:00 PM 78 83 0.58 0.05 2.13
7/6/2018 6:00 PM 80 67 0.95 0.04 2.54
7/6/2018 7:00 PM 83 61 1.09 0.02 0.91
7/6/2018 8:00 PM 80 67 0.07 0.02 1.95
7/6/2018 9:00 PM 78 77 0.01 0.02 2.14
7/6/2018 10:00 PM 76 84 0 0.01 0.55
7/6/2018 11:00 PM 76 89 0 0.01 0.63
Data Summary 81 70 18.50 0.31 1.78